Kine — C6WT4 — position and weather

sailwx.info

Track history (hours):
 
Tides and Currents Weather Stations Pressure Air Temp Water Temp Dewpoint Dewpoint Depression Visibility Wind Speed Wind Dir Waves Ship Positions

Kine

Last reported at 2016-Aug-31 20:24 UTC. Time now 2016-Aug-31 21:51 UTC.
Position N 54°19' E 013°06'.

Length 89 m; draft 2.8 m.

Type: Cargo ship. MMSI: 311117000.

Date/timePositionNaut miles runAvg speedWind from/ knotsBaromVisibWave heightAir tempDewpointWater temp
2016-Aug-31 20:24N 54°19' E 013°06'0 0.0
2016-Aug-31 19:30N 54°19' E 013°06'54 1.2
2016-Aug-29 22:33N 55°11' E 012°41'9 9.1
2016-Aug-29 21:33N 55°20' E 012°38'10 9.8
2016-Aug-29 20:33N 55°30' E 012°41'1111.4
2016-Aug-29 19:33N 55°41' E 012°41'1010.4
2016-Aug-29 18:33N 55°51' E 012°40'1110.8
2016-Aug-29 17:33N 56°02' E 012°39'1110.6
2016-Aug-29 16:33N 56°09' E 012°25'9 9.2
2016-Aug-29 15:33N 56°14' E 012°11'22 8.8
2016-Aug-29 13:03N 56°34' E 011°55'510.0
2016-Aug-29 12:33N 56°39' E 011°53'10 9.6
2016-Aug-29 11:33N 56°49' E 011°50'10 9.6
2016-Aug-29 10:33N 56°58' E 011°44'13 9.5
2016-Aug-29 09:12N 57°10' E 011°36'710.1
2016-Aug-29 08:33N 57°16' E 011°31'1010.1
2016-Aug-29 07:33N 57°25' E 011°25'9 9.3
2016-Aug-29 06:33N 57°32' E 011°13'10 9.8
2016-Aug-29 05:33N 57°39' E 010°59'118 7.7
2016-Aug-28 14:09N 57°55' E 007°20'5 8.4
2016-Aug-28 13:32N 57°56' E 007°10'8 8.3
2016-Aug-28 12:33N 57°56' E 006°55'9 9.2
2016-Aug-28 11:33N 58°00' E 006°39'9 9.4
2016-Aug-28 10:34N 58°05' E 006°24'9 9.2
2016-Aug-28 09:33N 58°11' E 006°10'9 9.3
2016-Aug-28 08:33N 58°17' E 005°57'9 9.1
2016-Aug-28 07:32N 58°23' E 005°44'9 9.1
2016-Aug-28 06:34N 58°30' E 005°33'9 9.0
2016-Aug-28 05:33N 58°37' E 005°21'9 9.1
2016-Aug-28 04:34N 58°44' E 005°10'9 8.6
2016-Aug-28 03:33N 58°51' E 005°02'9 8.5
2016-Aug-28 02:34N 58°59' E 004°55'9 8.6
2016-Aug-28 01:34N 59°07' E 004°49'8 8.5
2016-Aug-28 00:34N 59°15' E 004°43'  
2016-Aug-24 14:28N 66°21' E 011°43'8 9.0
2016-Aug-24 13:33N 66°29' E 011°50'9 9.1
2016-Aug-24 12:33N 66°37' E 011°60'78 9.8
2016-Aug-24 04:33N 67°39' E 014°03'10 9.9
2016-Aug-24 03:30N 67°47' E 014°20'1 0.0
2016-Aug-22 13:32N 67°49' E 014°21'11 9.9
2016-Aug-22 12:26N 67°40' E 014°03'80 9.8
2016-Aug-22 04:18N 66°38' E 011°56'7 9.7
2016-Aug-22 03:34N 66°31' E 011°46'  
Track history (hours):
 
Tides and Currents Weather Stations Pressure Air Temp Water Temp Dewpoint Dewpoint Depression Visibility Wind Speed Wind Dir Waves Ship Positions

Kine

Last reported at 2016-Aug-31 20:24 UTC. Time now 2016-Aug-31 21:51 UTC.
Position N 54°19' E 013°06'.

Length 89 m; draft 2.8 m.

Type: Cargo ship. MMSI: 311117000.

Date/timePositionNaut miles runAvg speedWind from/ knotsBaromVisibWave heightAir tempDewpointWater temp
2016-Aug-31 20:24N 54°19' E 013°06'0 0.0
2016-Aug-31 19:30N 54°19' E 013°06'54 1.2
2016-Aug-29 22:33N 55°11' E 012°41'9 9.1
2016-Aug-29 21:33N 55°20' E 012°38'10 9.8
2016-Aug-29 20:33N 55°30' E 012°41'1111.4
2016-Aug-29 19:33N 55°41' E 012°41'1010.4
2016-Aug-29 18:33N 55°51' E 012°40'1110.8
2016-Aug-29 17:33N 56°02' E 012°39'1110.6
2016-Aug-29 16:33N 56°09' E 012°25'9 9.2
2016-Aug-29 15:33N 56°14' E 012°11'22 8.8
2016-Aug-29 13:03N 56°34' E 011°55'510.0
2016-Aug-29 12:33N 56°39' E 011°53'10 9.6
2016-Aug-29 11:33N 56°49' E 011°50'10 9.6
2016-Aug-29 10:33N 56°58' E 011°44'13 9.5
2016-Aug-29 09:12N 57°10' E 011°36'710.1
2016-Aug-29 08:33N 57°16' E 011°31'1010.1
2016-Aug-29 07:33N 57°25' E 011°25'9 9.3
2016-Aug-29 06:33N 57°32' E 011°13'10 9.8
2016-Aug-29 05:33N 57°39' E 010°59'118 7.7
2016-Aug-28 14:09N 57°55' E 007°20'5 8.4
2016-Aug-28 13:32N 57°56' E 007°10'8 8.3
2016-Aug-28 12:33N 57°56' E 006°55'9 9.2
2016-Aug-28 11:33N 58°00' E 006°39'9 9.4
2016-Aug-28 10:34N 58°05' E 006°24'9 9.2
2016-Aug-28 09:33N 58°11' E 006°10'9 9.3
2016-Aug-28 08:33N 58°17' E 005°57'9 9.1
2016-Aug-28 07:32N 58°23' E 005°44'9 9.1
2016-Aug-28 06:34N 58°30' E 005°33'9 9.0
2016-Aug-28 05:33N 58°37' E 005°21'9 9.1
2016-Aug-28 04:34N 58°44' E 005°10'9 8.6
2016-Aug-28 03:33N 58°51' E 005°02'9 8.5
2016-Aug-28 02:34N 58°59' E 004°55'9 8.6
2016-Aug-28 01:34N 59°07' E 004°49'8 8.5
2016-Aug-28 00:34N 59°15' E 004°43'  
2016-Aug-24 14:28N 66°21' E 011°43'8 9.0
2016-Aug-24 13:33N 66°29' E 011°50'9 9.1
2016-Aug-24 12:33N 66°37' E 011°60'78 9.8
2016-Aug-24 04:33N 67°39' E 014°03'10 9.9
2016-Aug-24 03:30N 67°47' E 014°20'1 0.0
2016-Aug-22 13:32N 67°49' E 014°21'11 9.9
2016-Aug-22 12:26N 67°40' E 014°03'80 9.8
2016-Aug-22 04:18N 66°38' E 011°56'7 9.7
2016-Aug-22 03:34N 66°31' E 011°46'  

Dump ship's entire track history